sensor_id;sensor_type;location;lat;lon;timestamp;temperature;humidity
36352;DHT22;22382;44.768;17.206;2023-08-20T00:00:37;21.30;99.90
36352;DHT22;22382;44.768;17.206;2023-08-20T00:03:24;21.40;99.90
36352;DHT22;22382;44.768;17.206;2023-08-20T00:06:11;21.40;99.90
36352;DHT22;22382;44.768;17.206;2023-08-20T00:08:57;21.40;99.90
36352;DHT22;22382;44.768;17.206;2023-08-20T00:11:43;21.40;99.90
36352;DHT22;22382;44.768;17.206;2023-08-20T00:14:51;21.40;99.90
36352;DHT22;22382;44.768;17.206;2023-08-20T00:17:43;21.40;99.90
36352;DHT22;22382;44.768;17.206;2023-08-20T00:20:30;21.40;99.90
36352;DHT22;22382;44.768;17.206;2023-08-20T00:23:16;21.40;99.90
36352;DHT22;22382;44.768;17.206;2023-08-20T00:26:03;21.40;99.90
36352;DHT22;22382;44.768;17.206;2023-08-20T00:28:49;21.40;99.90
36352;DHT22;22382;44.768;17.206;2023-08-20T00:31:36;21.40;99.90
36352;DHT22;22382;44.768;17.206;2023-08-20T00:34:22;21.40;99.90
36352;DHT22;22382;44.768;17.206;2023-08-20T00:37:09;21.30;99.90
36352;DHT22;22382;44.768;17.206;2023-08-20T00:39:56;21.30;99.90
36352;DHT22;22382;44.768;17.206;2023-08-20T00:42:42;21.40;99.90
36352;DHT22;22382;44.768;17.206;2023-08-20T00:45:29;21.40;99.90
36352;DHT22;22382;44.768;17.206;2023-08-20T00:48:22;21.40;99.90
36352;DHT22;22382;44.768;17.206;2023-08-20T00:51:08;21.40;99.90
36352;DHT22;22382;44.768;17.206;2023-08-20T00:53:55;21.40;99.90
36352;DHT22;22382;44.768;17.206;2023-08-20T00:56:41;21.30;99.90
36352;DHT22;22382;44.768;17.206;2023-08-20T00:59:30;21.30;99.90
36352;DHT22;22382;44.768;17.206;2023-08-20T01:02:22;21.20;99.90
36352;DHT22;22382;44.768;17.206;2023-08-20T01:05:13;21.10;99.90
36352;DHT22;22382;44.768;17.206;2023-08-20T01:08:19;21.20;99.90
36352;DHT22;22382;44.768;17.206;2023-08-20T01:11:17;21.20;99.90
36352;DHT22;22382;44.768;17.206;2023-08-20T01:14:15;21.10;99.90
36352;DHT22;22382;44.768;17.206;2023-08-20T01:17:02;21.10;99.90
36352;DHT22;22382;44.768;17.206;2023-08-20T01:19:54;21.10;99.90
36352;DHT22;22382;44.768;17.206;2023-08-20T01:29:09;21.00;99.90
36352;DHT22;22382;44.768;17.206;2023-08-20T01:31:56;20.90;99.90
36352;DHT22;22382;44.768;17.206;2023-08-20T01:34:48;20.90;99.90
36352;DHT22;22382;44.768;17.206;2023-08-20T01:37:40;20.80;99.90
36352;DHT22;22382;44.768;17.206;2023-08-20T01:40:26;20.80;99.90
36352;DHT22;22382;44.768;17.206;2023-08-20T01:43:12;20.70;99.90
36352;DHT22;22382;44.768;17.206;2023-08-20T01:45:59;20.70;99.90
36352;DHT22;22382;44.768;17.206;2023-08-20T01:48:45;20.60;99.90
36352;DHT22;22382;44.768;17.206;2023-08-20T01:51:37;20.60;99.90
36352;DHT22;22382;44.768;17.206;2023-08-20T01:54:23;20.50;99.90
36352;DHT22;22382;44.768;17.206;2023-08-20T01:57:10;20.40;99.90
36352;DHT22;22382;44.768;17.206;2023-08-20T01:59:57;20.40;99.90
36352;DHT22;22382;44.768;17.206;2023-08-20T02:02:43;20.30;99.90
36352;DHT22;22382;44.768;17.206;2023-08-20T02:05:30;20.30;99.90
36352;DHT22;22382;44.768;17.206;2023-08-20T02:08:22;20.30;99.90
36352;DHT22;22382;44.768;17.206;2023-08-20T02:11:08;20.20;99.90
36352;DHT22;22382;44.768;17.206;2023-08-20T02:13:54;20.20;99.90
36352;DHT22;22382;44.768;17.206;2023-08-20T02:16:40;20.20;99.90
36352;DHT22;22382;44.768;17.206;2023-08-20T02:19:26;20.20;99.90
36352;DHT22;22382;44.768;17.206;2023-08-20T02:22:17;20.10;99.90
36352;DHT22;22382;44.768;17.206;2023-08-20T02:25:09;20.20;99.90
36352;DHT22;22382;44.768;17.206;2023-08-20T02:27:54;20.20;99.90
36352;DHT22;22382;44.768;17.206;2023-08-20T02:30:45;20.20;99.90
36352;DHT22;22382;44.768;17.206;2023-08-20T02:33:32;20.10;99.90
36352;DHT22;22382;44.768;17.206;2023-08-20T02:36:18;20.10;99.90
36352;DHT22;22382;44.768;17.206;2023-08-20T02:39:10;20.10;99.90
36352;DHT22;22382;44.768;17.206;2023-08-20T02:41:56;20.00;99.90
36352;DHT22;22382;44.768;17.206;2023-08-20T02:44:43;20.10;99.90
36352;DHT22;22382;44.768;17.206;2023-08-20T02:47:29;20.10;99.90
36352;DHT22;22382;44.768;17.206;2023-08-20T02:50:15;20.00;99.90
36352;DHT22;22382;44.768;17.206;2023-08-20T02:53:02;20.00;99.90
36352;DHT22;22382;44.768;17.206;2023-08-20T02:55:53;20.00;99.90
36352;DHT22;22382;44.768;17.206;2023-08-20T02:58:40;20.00;99.90
36352;DHT22;22382;44.768;17.206;2023-08-20T03:01:27;20.00;99.90
36352;DHT22;22382;44.768;17.206;2023-08-20T03:04:13;20.00;99.90
36352;DHT22;22382;44.768;17.206;2023-08-20T03:07:00;20.00;99.90
36352;DHT22;22382;44.768;17.206;2023-08-20T03:09:46;20.00;99.90
36352;DHT22;22382;44.768;17.206;2023-08-20T03:12:38;20.00;99.90
36352;DHT22;22382;44.768;17.206;2023-08-20T03:15:23;20.00;99.90
36352;DHT22;22382;44.768;17.206;2023-08-20T03:18:10;20.00;99.90
36352;DHT22;22382;44.768;17.206;2023-08-20T03:20:57;20.00;99.90
36352;DHT22;22382;44.768;17.206;2023-08-20T03:23:43;20.00;99.90
36352;DHT22;22382;44.768;17.206;2023-08-20T03:26:30;19.90;99.90
36352;DHT22;22382;44.768;17.206;2023-08-20T03:29:16;19.90;99.90
36352;DHT22;22382;44.768;17.206;2023-08-20T03:32:03;19.90;99.90
36352;DHT22;22382;44.768;17.206;2023-08-20T03:34:50;19.90;99.90
36352;DHT22;22382;44.768;17.206;2023-08-20T03:37:36;19.90;99.90
36352;DHT22;22382;44.768;17.206;2023-08-20T03:40:28;19.90;99.90
36352;DHT22;22382;44.768;17.206;2023-08-20T03:43:20;19.90;99.90
36352;DHT22;22382;44.768;17.206;2023-08-20T03:46:07;19.90;99.90
36352;DHT22;22382;44.768;17.206;2023-08-20T03:48:53;20.00;99.90
36352;DHT22;22382;44.768;17.206;2023-08-20T03:51:39;20.00;99.90
36352;DHT22;22382;44.768;17.206;2023-08-20T03:54:25;19.90;99.90
36352;DHT22;22382;44.768;17.206;2023-08-20T03:57:11;19.90;99.90
36352;DHT22;22382;44.768;17.206;2023-08-20T03:59:58;20.00;99.90
36352;DHT22;22382;44.768;17.206;2023-08-20T04:02:43;20.00;99.90
36352;DHT22;22382;44.768;17.206;2023-08-20T04:05:29;20.00;99.90
36352;DHT22;22382;44.768;17.206;2023-08-20T04:08:15;19.90;99.90
36352;DHT22;22382;44.768;17.206;2023-08-20T04:11:02;20.00;99.90
36352;DHT22;22382;44.768;17.206;2023-08-20T04:13:54;20.00;99.90
36352;DHT22;22382;44.768;17.206;2023-08-20T04:16:42;20.00;99.90
36352;DHT22;22382;44.768;17.206;2023-08-20T04:19:28;20.00;99.90
36352;DHT22;22382;44.768;17.206;2023-08-20T04:22:17;20.00;99.90
36352;DHT22;22382;44.768;17.206;2023-08-20T04:25:05;20.10;99.90
36352;DHT22;22382;44.768;17.206;2023-08-20T04:27:52;20.10;99.90
36352;DHT22;22382;44.768;17.206;2023-08-20T04:30:38;20.30;99.90
36352;DHT22;22382;44.768;17.206;2023-08-20T04:33:25;20.40;99.90
36352;DHT22;22382;44.768;17.206;2023-08-20T04:36:13;20.50;99.90
36352;DHT22;22382;44.768;17.206;2023-08-20T04:38:59;20.60;99.90
36352;DHT22;22382;44.768;17.206;2023-08-20T04:41:46;20.80;99.90
36352;DHT22;22382;44.768;17.206;2023-08-20T04:44:37;20.90;99.90
36352;DHT22;22382;44.768;17.206;2023-08-20T04:47:24;21.00;99.90
36352;DHT22;22382;44.768;17.206;2023-08-20T04:50:10;21.10;99.90
36352;DHT22;22382;44.768;17.206;2023-08-20T04:52:56;21.20;99.90
36352;DHT22;22382;44.768;17.206;2023-08-20T04:55:42;21.30;99.90
36352;DHT22;22382;44.768;17.206;2023-08-20T04:58:33;21.40;99.90
36352;DHT22;22382;44.768;17.206;2023-08-20T05:01:25;21.50;99.90
36352;DHT22;22382;44.768;17.206;2023-08-20T05:04:11;21.70;99.90
36352;DHT22;22382;44.768;17.206;2023-08-20T05:06:57;21.80;99.90
36352;DHT22;22382;44.768;17.206;2023-08-20T05:09:43;22.00;99.90
36352;DHT22;22382;44.768;17.206;2023-08-20T05:12:30;22.20;99.90
36352;DHT22;22382;44.768;17.206;2023-08-20T05:15:21;22.20;99.90
36352;DHT22;22382;44.768;17.206;2023-08-20T05:18:13;22.40;99.90
36352;DHT22;22382;44.768;17.206;2023-08-20T05:21:00;22.60;99.90
36352;DHT22;22382;44.768;17.206;2023-08-20T05:23:45;22.80;99.90
36352;DHT22;22382;44.768;17.206;2023-08-20T05:26:31;23.00;99.90
36352;DHT22;22382;44.768;17.206;2023-08-20T05:29:18;23.20;99.90
36352;DHT22;22382;44.768;17.206;2023-08-20T05:32:09;23.30;99.90
36352;DHT22;22382;44.768;17.206;2023-08-20T05:34:56;23.50;99.90
36352;DHT22;22382;44.768;17.206;2023-08-20T05:37:43;23.60;99.90
36352;DHT22;22382;44.768;17.206;2023-08-20T05:40:29;23.60;99.90
36352;DHT22;22382;44.768;17.206;2023-08-20T05:43:15;23.80;99.90
36352;DHT22;22382;44.768;17.206;2023-08-20T05:46:06;23.90;99.90
36352;DHT22;22382;44.768;17.206;2023-08-20T05:48:53;24.10;99.90
36352;DHT22;22382;44.768;17.206;2023-08-20T05:51:39;24.20;99.90
36352;DHT22;22382;44.768;17.206;2023-08-20T05:54:26;24.30;99.90
36352;DHT22;22382;44.768;17.206;2023-08-20T05:57:13;24.40;99.90
36352;DHT22;22382;44.768;17.206;2023-08-20T05:59:59;24.60;99.90
36352;DHT22;22382;44.768;17.206;2023-08-20T06:02:51;24.70;99.90
36352;DHT22;22382;44.768;17.206;2023-08-20T06:05:37;24.80;99.90
36352;DHT22;22382;44.768;17.206;2023-08-20T06:08:28;24.90;99.90
36352;DHT22;22382;44.768;17.206;2023-08-20T06:11:32;25.10;99.90
36352;DHT22;22382;44.768;17.206;2023-08-20T06:14:17;25.20;99.90
36352;DHT22;22382;44.768;17.206;2023-08-20T06:17:04;25.30;99.90
36352;DHT22;22382;44.768;17.206;2023-08-20T06:19:50;25.40;99.90
36352;DHT22;22382;44.768;17.206;2023-08-20T06:22:37;25.50;99.90
36352;DHT22;22382;44.768;17.206;2023-08-20T06:25:23;25.60;99.90
36352;DHT22;22382;44.768;17.206;2023-08-20T06:28:10;25.70;99.90
36352;DHT22;22382;44.768;17.206;2023-08-20T06:30:56;25.90;99.90
36352;DHT22;22382;44.768;17.206;2023-08-20T06:33:48;26.00;99.90
36352;DHT22;22382;44.768;17.206;2023-08-20T06:36:36;26.10;99.90
36352;DHT22;22382;44.768;17.206;2023-08-20T06:39:22;26.30;99.90
36352;DHT22;22382;44.768;17.206;2023-08-20T06:42:09;26.20;99.90
36352;DHT22;22382;44.768;17.206;2023-08-20T06:44:54;26.30;99.90
36352;DHT22;22382;44.768;17.206;2023-08-20T06:47:46;26.50;99.90
36352;DHT22;22382;44.768;17.206;2023-08-20T06:50:38;26.60;99.90
36352;DHT22;22382;44.768;17.206;2023-08-20T06:53:24;26.80;99.90
36352;DHT22;22382;44.768;17.206;2023-08-20T06:56:11;26.80;99.90
36352;DHT22;22382;44.768;17.206;2023-08-20T06:58:57;26.80;99.90
36352;DHT22;22382;44.768;17.206;2023-08-20T07:01:44;26.90;99.90
36352;DHT22;22382;44.768;17.206;2023-08-20T07:04:35;27.00;99.90
36352;DHT22;22382;44.768;17.206;2023-08-20T07:07:27;26.80;99.90
36352;DHT22;22382;44.768;17.206;2023-08-20T07:10:13;26.80;99.90
36352;DHT22;22382;44.768;17.206;2023-08-20T07:12:59;26.70;99.90
36352;DHT22;22382;44.768;17.206;2023-08-20T07:15:46;26.60;99.90
36352;DHT22;22382;44.768;17.206;2023-08-20T07:18:33;26.80;99.90
36352;DHT22;22382;44.768;17.206;2023-08-20T07:21:24;26.70;99.90
36352;DHT22;22382;44.768;17.206;2023-08-20T07:24:11;26.80;99.90
36352;DHT22;22382;44.768;17.206;2023-08-20T07:26:57;27.10;99.90
36352;DHT22;22382;44.768;17.206;2023-08-20T07:29:44;27.10;99.90
36352;DHT22;22382;44.768;17.206;2023-08-20T07:32:31;27.20;99.90
36352;DHT22;22382;44.768;17.206;2023-08-20T07:35:22;27.50;99.90
36352;DHT22;22382;44.768;17.206;2023-08-20T07:38:08;27.60;99.90
36352;DHT22;22382;44.768;17.206;2023-08-20T07:40:55;27.60;99.90
36352;DHT22;22382;44.768;17.206;2023-08-20T07:43:41;27.80;99.90
36352;DHT22;22382;44.768;17.206;2023-08-20T07:46:27;27.80;99.90
36352;DHT22;22382;44.768;17.206;2023-08-20T07:49:14;27.90;99.90
36352;DHT22;22382;44.768;17.206;2023-08-20T07:52:05;27.90;99.90
36352;DHT22;22382;44.768;17.206;2023-08-20T07:54:52;27.90;99.90
36352;DHT22;22382;44.768;17.206;2023-08-20T07:57:39;27.60;99.90
36352;DHT22;22382;44.768;17.206;2023-08-20T08:00:25;27.60;99.90
36352;DHT22;22382;44.768;17.206;2023-08-20T08:03:12;27.70;99.90
36352;DHT22;22382;44.768;17.206;2023-08-20T08:06:03;27.80;99.90
36352;DHT22;22382;44.768;17.206;2023-08-20T08:08:50;27.80;99.90
36352;DHT22;22382;44.768;17.206;2023-08-20T08:11:36;27.90;99.90
36352;DHT22;22382;44.768;17.206;2023-08-20T08:14:22;28.30;99.90
36352;DHT22;22382;44.768;17.206;2023-08-20T08:17:09;28.40;99.90
36352;DHT22;22382;44.768;17.206;2023-08-20T08:19:55;28.40;99.90
36352;DHT22;22382;44.768;17.206;2023-08-20T08:22:47;28.10;99.90
36352;DHT22;22382;44.768;17.206;2023-08-20T08:25:33;28.20;99.90
36352;DHT22;22382;44.768;17.206;2023-08-20T08:28:20;28.10;99.90
36352;DHT22;22382;44.768;17.206;2023-08-20T08:31:07;28.30;99.90
36352;DHT22;22382;44.768;17.206;2023-08-20T08:33:53;28.40;99.90
36352;DHT22;22382;44.768;17.206;2023-08-20T08:36:40;28.40;99.90
36352;DHT22;22382;44.768;17.206;2023-08-20T08:39:32;28.50;99.90
36352;DHT22;22382;44.768;17.206;2023-08-20T08:42:20;28.50;99.90
36352;DHT22;22382;44.768;17.206;2023-08-20T08:45:09;28.50;99.90
36352;DHT22;22382;44.768;17.206;2023-08-20T08:47:56;28.60;99.90
36352;DHT22;22382;44.768;17.206;2023-08-20T08:50:43;29.10;99.90
36352;DHT22;22382;44.768;17.206;2023-08-20T08:53:35;29.60;99.90
36352;DHT22;22382;44.768;17.206;2023-08-20T08:56:22;29.30;99.90
36352;DHT22;22382;44.768;17.206;2023-08-20T08:59:08;29.20;99.90
36352;DHT22;22382;44.768;17.206;2023-08-20T09:01:56;29.30;99.90
36352;DHT22;22382;44.768;17.206;2023-08-20T09:04:42;29.50;99.90
36352;DHT22;22382;44.768;17.206;2023-08-20T09:07:28;29.60;99.90
36352;DHT22;22382;44.768;17.206;2023-08-20T09:10:20;29.50;99.90
36352;DHT22;22382;44.768;17.206;2023-08-20T09:13:05;29.40;99.90
36352;DHT22;22382;44.768;17.206;2023-08-20T09:15:53;29.20;99.90
36352;DHT22;22382;44.768;17.206;2023-08-20T09:18:46;29.20;99.90
36352;DHT22;22382;44.768;17.206;2023-08-20T09:21:32;29.10;99.90
36352;DHT22;22382;44.768;17.206;2023-08-20T09:24:33;28.50;99.90
36352;DHT22;22382;44.768;17.206;2023-08-20T09:27:20;28.40;99.90
36352;DHT22;22382;44.768;17.206;2023-08-20T09:30:07;28.80;99.90
36352;DHT22;22382;44.768;17.206;2023-08-20T09:33:07;29.00;99.90
36352;DHT22;22382;44.768;17.206;2023-08-20T09:35:54;28.90;99.90
36352;DHT22;22382;44.768;17.206;2023-08-20T09:38:40;28.90;99.90
36352;DHT22;22382;44.768;17.206;2023-08-20T09:41:33;28.90;99.90
36352;DHT22;22382;44.768;17.206;2023-08-20T09:44:20;29.00;99.90
36352;DHT22;22382;44.768;17.206;2023-08-20T09:47:10;28.90;99.90
36352;DHT22;22382;44.768;17.206;2023-08-20T09:49:57;29.00;99.90
36352;DHT22;22382;44.768;17.206;2023-08-20T09:53:12;29.00;99.90
36352;DHT22;22382;44.768;17.206;2023-08-20T09:56:11;29.20;99.90
36352;DHT22;22382;44.768;17.206;2023-08-20T09:59:00;28.90;99.90
36352;DHT22;22382;44.768;17.206;2023-08-20T10:01:47;29.20;99.90
36352;DHT22;22382;44.768;17.206;2023-08-20T10:04:34;29.40;99.90
36352;DHT22;22382;44.768;17.206;2023-08-20T10:07:22;29.40;99.90
36352;DHT22;22382;44.768;17.206;2023-08-20T10:10:09;29.20;99.90
36352;DHT22;22382;44.768;17.206;2023-08-20T10:13:00;29.10;99.90
36352;DHT22;22382;44.768;17.206;2023-08-20T10:15:48;29.10;99.90
36352;DHT22;22382;44.768;17.206;2023-08-20T10:18:36;29.40;99.90
36352;DHT22;22382;44.768;17.206;2023-08-20T10:21:24;29.00;99.90
36352;DHT22;22382;44.768;17.206;2023-08-20T10:24:10;28.90;99.90
36352;DHT22;22382;44.768;17.206;2023-08-20T10:27:11;29.10;99.90
36352;DHT22;22382;44.768;17.206;2023-08-20T10:30:11;29.00;99.90
36352;DHT22;22382;44.768;17.206;2023-08-20T10:33:02;29.10;99.90
36352;DHT22;22382;44.768;17.206;2023-08-20T10:35:49;29.00;99.90
36352;DHT22;22382;44.768;17.206;2023-08-20T10:38:38;29.00;99.90
36352;DHT22;22382;44.768;17.206;2023-08-20T10:41:26;29.40;99.90
36352;DHT22;22382;44.768;17.206;2023-08-20T10:44:17;29.40;99.90
36352;DHT22;22382;44.768;17.206;2023-08-20T10:47:07;29.60;99.90
36352;DHT22;22382;44.768;17.206;2023-08-20T10:49:54;29.90;99.90
36352;DHT22;22382;44.768;17.206;2023-08-20T10:52:46;30.20;99.90
36352;DHT22;22382;44.768;17.206;2023-08-20T10:55:33;30.10;99.90
36352;DHT22;22382;44.768;17.206;2023-08-20T10:58:23;29.60;99.90
36352;DHT22;22382;44.768;17.206;2023-08-20T11:01:19;29.40;99.90
36352;DHT22;22382;44.768;17.206;2023-08-20T11:04:05;29.40;99.90
36352;DHT22;22382;44.768;17.206;2023-08-20T11:06:58;29.50;99.90
36352;DHT22;22382;44.768;17.206;2023-08-20T11:09:45;29.50;99.90
36352;DHT22;22382;44.768;17.206;2023-08-20T11:12:31;29.50;99.90
36352;DHT22;22382;44.768;17.206;2023-08-20T11:15:22;29.40;99.90
36352;DHT22;22382;44.768;17.206;2023-08-20T11:18:09;29.80;99.90
36352;DHT22;22382;44.768;17.206;2023-08-20T11:20:55;30.00;99.90
36352;DHT22;22382;44.768;17.206;2023-08-20T11:23:43;30.30;99.90
36352;DHT22;22382;44.768;17.206;2023-08-20T11:26:30;30.40;99.90
36352;DHT22;22382;44.768;17.206;2023-08-20T11:29:17;30.30;99.90
36352;DHT22;22382;44.768;17.206;2023-08-20T11:32:09;29.80;99.90
36352;DHT22;22382;44.768;17.206;2023-08-20T11:35:01;30.00;99.90
36352;DHT22;22382;44.768;17.206;2023-08-20T11:37:48;30.30;99.90
36352;DHT22;22382;44.768;17.206;2023-08-20T11:40:36;30.20;99.90
36352;DHT22;22382;44.768;17.206;2023-08-20T11:43:22;30.20;99.90
36352;DHT22;22382;44.768;17.206;2023-08-20T11:46:13;29.90;99.90
36352;DHT22;22382;44.768;17.206;2023-08-20T11:49:07;29.90;99.90
36352;DHT22;22382;44.768;17.206;2023-08-20T11:51:55;30.10;99.90
36352;DHT22;22382;44.768;17.206;2023-08-20T11:54:42;30.10;99.90
36352;DHT22;22382;44.768;17.206;2023-08-20T11:57:29;30.60;99.90
36352;DHT22;22382;44.768;17.206;2023-08-20T12:00:27;30.70;99.90
36352;DHT22;22382;44.768;17.206;2023-08-20T12:03:19;30.20;99.90
36352;DHT22;22382;44.768;17.206;2023-08-20T12:06:20;30.10;99.90
36352;DHT22;22382;44.768;17.206;2023-08-20T12:09:20;30.40;99.90
36352;DHT22;22382;44.768;17.206;2023-08-20T12:12:08;30.70;99.90
36352;DHT22;22382;44.768;17.206;2023-08-20T12:14:53;30.40;99.90
36352;DHT22;22382;44.768;17.206;2023-08-20T12:17:39;30.10;99.90
36352;DHT22;22382;44.768;17.206;2023-08-20T12:20:32;30.00;99.90
36352;DHT22;22382;44.768;17.206;2023-08-20T12:23:18;30.00;99.90
36352;DHT22;22382;44.768;17.206;2023-08-20T12:26:04;30.10;99.90
36352;DHT22;22382;44.768;17.206;2023-08-20T12:28:49;30.30;99.90
36352;DHT22;22382;44.768;17.206;2023-08-20T12:31:36;30.40;99.90
36352;DHT22;22382;44.768;17.206;2023-08-20T12:34:23;30.20;99.90
36352;DHT22;22382;44.768;17.206;2023-08-20T12:37:14;30.20;99.90
36352;DHT22;22382;44.768;17.206;2023-08-20T12:40:01;30.30;99.90
36352;DHT22;22382;44.768;17.206;2023-08-20T12:42:47;30.20;99.90
36352;DHT22;22382;44.768;17.206;2023-08-20T12:45:34;30.40;99.90
36352;DHT22;22382;44.768;17.206;2023-08-20T12:48:21;30.40;99.90
36352;DHT22;22382;44.768;17.206;2023-08-20T12:51:12;30.60;99.90
36352;DHT22;22382;44.768;17.206;2023-08-20T12:53:57;30.70;99.90
36352;DHT22;22382;44.768;17.206;2023-08-20T12:56:43;30.60;99.90
36352;DHT22;22382;44.768;17.206;2023-08-20T12:59:30;30.70;99.90
36352;DHT22;22382;44.768;17.206;2023-08-20T13:02:19;30.60;99.90
36352;DHT22;22382;44.768;17.206;2023-08-20T13:05:11;30.50;99.90
36352;DHT22;22382;44.768;17.206;2023-08-20T13:07:58;30.60;99.90
36352;DHT22;22382;44.768;17.206;2023-08-20T13:10:56;30.60;99.90
36352;DHT22;22382;44.768;17.206;2023-08-20T13:13:43;30.80;99.90
36352;DHT22;22382;44.768;17.206;2023-08-20T13:16:29;30.60;99.90
36352;DHT22;22382;44.768;17.206;2023-08-20T13:19:16;30.70;99.90
36352;DHT22;22382;44.768;17.206;2023-08-20T13:22:07;30.60;99.90
36352;DHT22;22382;44.768;17.206;2023-08-20T13:24:54;30.50;99.90
36352;DHT22;22382;44.768;17.206;2023-08-20T13:27:41;30.60;99.90
36352;DHT22;22382;44.768;17.206;2023-08-20T13:30:27;30.70;99.90
36352;DHT22;22382;44.768;17.206;2023-08-20T13:33:14;30.70;99.90
36352;DHT22;22382;44.768;17.206;2023-08-20T13:36:06;30.60;99.60
36352;DHT22;22382;44.768;17.206;2023-08-20T13:38:57;30.70;99.50
36352;DHT22;22382;44.768;17.206;2023-08-20T13:41:45;30.80;99.10
36352;DHT22;22382;44.768;17.206;2023-08-20T13:44:32;30.90;99.40
36352;DHT22;22382;44.768;17.206;2023-08-20T13:47:19;30.90;98.90
36352;DHT22;22382;44.768;17.206;2023-08-20T13:50:05;30.70;98.60
36352;DHT22;22382;44.768;17.206;2023-08-20T13:52:57;30.90;98.50
36352;DHT22;22382;44.768;17.206;2023-08-20T13:55:49;30.90;98.60
36352;DHT22;22382;44.768;17.206;2023-08-20T13:58:35;30.90;98.80
36352;DHT22;22382;44.768;17.206;2023-08-20T14:01:22;31.20;98.70
36352;DHT22;22382;44.768;17.206;2023-08-20T14:04:08;31.30;98.60
36352;DHT22;22382;44.768;17.206;2023-08-20T14:06:55;31.40;98.40
36352;DHT22;22382;44.768;17.206;2023-08-20T14:09:46;31.30;98.20
36352;DHT22;22382;44.768;17.206;2023-08-20T14:12:33;31.30;97.90
36352;DHT22;22382;44.768;17.206;2023-08-20T14:15:19;31.00;98.30
36352;DHT22;22382;44.768;17.206;2023-08-20T14:18:05;31.00;98.00
36352;DHT22;22382;44.768;17.206;2023-08-20T14:20:51;30.90;98.10
36352;DHT22;22382;44.768;17.206;2023-08-20T14:23:37;31.20;97.70
36352;DHT22;22382;44.768;17.206;2023-08-20T14:26:24;31.10;97.10
36352;DHT22;22382;44.768;17.206;2023-08-20T14:29:09;31.10;97.00
36352;DHT22;22382;44.768;17.206;2023-08-20T14:31:56;31.20;97.00
36352;DHT22;22382;44.768;17.206;2023-08-20T14:34:43;31.20;96.90
36352;DHT22;22382;44.768;17.206;2023-08-20T14:37:29;31.40;97.00
36352;DHT22;22382;44.768;17.206;2023-08-20T14:40:20;32.00;96.40
36352;DHT22;22382;44.768;17.206;2023-08-20T14:43:07;33.30;95.40
36352;DHT22;22382;44.768;17.206;2023-08-20T14:45:53;33.70;94.10
36352;DHT22;22382;44.768;17.206;2023-08-20T14:48:40;34.60;93.40
36352;DHT22;22382;44.768;17.206;2023-08-20T14:51:26;34.80;92.20
36352;DHT22;22382;44.768;17.206;2023-08-20T14:54:25;35.50;91.30
36352;DHT22;22382;44.768;17.206;2023-08-20T14:57:11;35.80;90.50
36352;DHT22;22382;44.768;17.206;2023-08-20T15:00:16;34.20;89.10
36352;DHT22;22382;44.768;17.206;2023-08-20T15:03:03;33.20;91.90
36352;DHT22;22382;44.768;17.206;2023-08-20T15:05:49;34.20;90.90
36352;DHT22;22382;44.768;17.206;2023-08-20T15:08:35;34.60;89.80
36352;DHT22;22382;44.768;17.206;2023-08-20T15:11:26;35.40;87.90
36352;DHT22;22382;44.768;17.206;2023-08-20T15:14:13;36.40;85.10
36352;DHT22;22382;44.768;17.206;2023-08-20T15:16:59;35.60;85.10
36352;DHT22;22382;44.768;17.206;2023-08-20T15:19:46;34.50;87.70
36352;DHT22;22382;44.768;17.206;2023-08-20T15:22:33;33.40;89.00
36352;DHT22;22382;44.768;17.206;2023-08-20T15:25:19;32.70;90.80
36352;DHT22;22382;44.768;17.206;2023-08-20T15:28:11;32.30;91.90
36352;DHT22;22382;44.768;17.206;2023-08-20T15:30:57;32.20;92.60
36352;DHT22;22382;44.768;17.206;2023-08-20T15:33:43;31.90;93.40
36352;DHT22;22382;44.768;17.206;2023-08-20T15:36:29;31.60;94.00
36352;DHT22;22382;44.768;17.206;2023-08-20T15:39:16;31.20;94.80
36352;DHT22;22382;44.768;17.206;2023-08-20T15:42:03;31.00;95.00
36352;DHT22;22382;44.768;17.206;2023-08-20T15:44:49;30.80;95.10
36352;DHT22;22382;44.768;17.206;2023-08-20T15:47:36;30.60;95.40
36352;DHT22;22382;44.768;17.206;2023-08-20T15:50:23;30.60;95.60
36352;DHT22;22382;44.768;17.206;2023-08-20T15:53:09;30.60;96.10
36352;DHT22;22382;44.768;17.206;2023-08-20T15:55:54;30.70;96.30
36352;DHT22;22382;44.768;17.206;2023-08-20T15:58:45;30.60;96.70
36352;DHT22;22382;44.768;17.206;2023-08-20T16:01:32;30.60;97.10
36352;DHT22;22382;44.768;17.206;2023-08-20T16:04:17;30.60;97.30
36352;DHT22;22382;44.768;17.206;2023-08-20T16:07:04;30.70;97.20
36352;DHT22;22382;44.768;17.206;2023-08-20T16:09:50;30.70;97.60
36352;DHT22;22382;44.768;17.206;2023-08-20T16:12:41;30.70;97.40
36352;DHT22;22382;44.768;17.206;2023-08-20T16:15:28;30.60;98.00
36352;DHT22;22382;44.768;17.206;2023-08-20T16:18:15;30.60;98.30
36352;DHT22;22382;44.768;17.206;2023-08-20T16:21:01;30.60;98.60
36352;DHT22;22382;44.768;17.206;2023-08-20T16:23:48;30.50;98.50
36352;DHT22;22382;44.768;17.206;2023-08-20T16:26:34;30.50;98.00
36352;DHT22;22382;44.768;17.206;2023-08-20T16:29:27;30.40;98.20
36352;DHT22;22382;44.768;17.206;2023-08-20T16:32:13;30.40;98.80
36352;DHT22;22382;44.768;17.206;2023-08-20T16:35:00;30.40;98.60
36352;DHT22;22382;44.768;17.206;2023-08-20T16:37:46;30.40;98.80
36352;DHT22;22382;44.768;17.206;2023-08-20T16:40:33;30.40;98.80
36352;DHT22;22382;44.768;17.206;2023-08-20T16:43:20;30.30;99.10
36352;DHT22;22382;44.768;17.206;2023-08-20T16:46:11;30.30;99.40
36352;DHT22;22382;44.768;17.206;2023-08-20T16:48:56;30.20;99.70
36352;DHT22;22382;44.768;17.206;2023-08-20T16:51:42;30.20;99.90
36352;DHT22;22382;44.768;17.206;2023-08-20T16:54:29;30.20;99.90
36352;DHT22;22382;44.768;17.206;2023-08-20T16:57:15;30.20;99.90
36352;DHT22;22382;44.768;17.206;2023-08-20T17:00:08;30.00;99.90
36352;DHT22;22382;44.768;17.206;2023-08-20T17:02:58;30.00;99.90
36352;DHT22;22382;44.768;17.206;2023-08-20T17:05:44;30.00;99.90
36352;DHT22;22382;44.768;17.206;2023-08-20T17:08:31;30.00;99.90
36352;DHT22;22382;44.768;17.206;2023-08-20T17:11:17;29.90;99.90
36352;DHT22;22382;44.768;17.206;2023-08-20T17:14:03;29.80;99.90
36352;DHT22;22382;44.768;17.206;2023-08-20T17:16:55;29.60;99.90
36352;DHT22;22382;44.768;17.206;2023-08-20T17:19:46;29.60;99.90
36352;DHT22;22382;44.768;17.206;2023-08-20T17:22:33;29.50;99.90
36352;DHT22;22382;44.768;17.206;2023-08-20T17:25:19;29.30;99.90
36352;DHT22;22382;44.768;17.206;2023-08-20T17:28:05;29.20;99.90
36352;DHT22;22382;44.768;17.206;2023-08-20T17:30:51;29.10;99.90